createdAt,value
2023-03-22T00:00:17.531Z,99.90
2023-03-22T00:02:45.985Z,99.90
2023-03-22T00:07:43.552Z,99.90
2023-03-22T00:12:40.893Z,99.90
2023-03-22T00:15:11.231Z,99.90
2023-03-22T00:17:42.107Z,99.90
2023-03-22T00:20:12.694Z,99.90
2023-03-22T00:22:41.433Z,99.90
2023-03-22T00:25:10.763Z,99.90
2023-03-22T00:27:39.766Z,99.90
2023-03-22T00:32:42.369Z,99.90
2023-03-22T00:35:12.574Z,99.90
2023-03-22T00:42:42.905Z,99.90
2023-03-22T00:45:13.376Z,99.90
2023-03-22T00:47:43.620Z,99.90
2023-03-22T00:50:12.701Z,99.90
2023-03-22T00:52:41.194Z,99.90
2023-03-22T00:57:39.413Z,99.90
2023-03-22T01:00:13.799Z,99.90
2023-03-22T01:05:22.016Z,99.90
2023-03-22T01:07:51.784Z,99.90
2023-03-22T01:10:20.436Z,99.90
2023-03-22T01:15:18.387Z,99.90
2023-03-22T01:17:48.213Z,99.90
2023-03-22T01:20:16.840Z,99.90
2023-03-22T01:25:15.401Z,99.90
2023-03-22T01:27:44.094Z,99.90
2023-03-22T01:30:14.475Z,99.90
2023-03-22T01:35:14.068Z,99.90
2023-03-22T01:40:16.486Z,99.90
2023-03-22T01:42:46.725Z,99.90
2023-03-22T01:45:43.189Z,99.90
2023-03-22T01:48:25.438Z,99.90
2023-03-22T01:53:44.293Z,99.90
2023-03-22T01:56:14.773Z,99.90
2023-03-22T01:58:44.145Z,99.90
2023-03-22T02:01:14.555Z,99.90
2023-03-22T02:03:57.029Z,99.90
2023-03-22T02:06:29.962Z,99.90
2023-03-22T02:11:41.579Z,99.90
2023-03-22T02:14:47.004Z,99.90
2023-03-22T02:17:35.323Z,99.90
2023-03-22T02:21:01.874Z,99.90
2023-03-22T02:24:06.781Z,99.90
2023-03-22T02:27:23.625Z,99.90
2023-03-22T02:30:09.362Z,99.90
2023-03-22T02:33:25.596Z,99.90
2023-03-22T02:44:43.062Z,99.90
2023-03-22T02:47:26.133Z,99.90
2023-03-22T02:50:07.207Z,99.90
2023-03-22T02:52:43.753Z,99.90
2023-03-22T02:55:21.926Z,99.90
2023-03-22T02:57:57.937Z,99.90
2023-03-22T03:00:29.095Z,99.90
2023-03-22T03:03:11.268Z,99.90
2023-03-22T03:05:44.981Z,99.90
2023-03-22T03:08:18.255Z,99.90
2023-03-22T03:10:50.375Z,99.90
2023-03-22T03:13:20.851Z,99.90
2023-03-22T03:15:58.986Z,99.90
2023-03-22T03:18:46.005Z,99.90
2023-03-22T03:21:32.756Z,99.90
2023-03-22T03:24:22.182Z,99.90
2023-03-22T03:27:01.962Z,99.90
2023-03-22T03:29:41.621Z,99.90
2023-03-22T03:32:18.381Z,99.90
2023-03-22T03:34:55.106Z,99.90
2023-03-22T03:40:05.890Z,99.90
2023-03-22T03:42:38.170Z,99.90
2023-03-22T03:45:09.785Z,99.90
2023-03-22T03:47:40.607Z,99.90
2023-03-22T03:50:11.197Z,99.90
2023-03-22T03:52:40.163Z,99.90
2023-03-22T03:55:09.781Z,99.90
2023-03-22T03:57:39.446Z,99.90
2023-03-22T04:00:10.733Z,99.90
2023-03-22T04:02:47.909Z,99.90
2023-03-22T04:05:36.689Z,99.90
2023-03-22T04:08:05.326Z,99.90
2023-03-22T04:10:34.727Z,99.90
2023-03-22T04:13:04.741Z,99.90
2023-03-22T04:15:33.848Z,99.90
2023-03-22T04:20:35.568Z,99.90
2023-03-22T04:23:04.000Z,99.90
2023-03-22T04:25:33.990Z,99.90
2023-03-22T04:28:09.838Z,99.90
2023-03-22T04:30:38.794Z,99.90
2023-03-22T04:33:22.951Z,99.90
2023-03-22T04:36:16.000Z,99.90
2023-03-22T04:44:03.039Z,99.90
2023-03-22T04:46:35.564Z,99.90
2023-03-22T04:49:07.391Z,99.90
2023-03-22T04:51:39.806Z,99.90
2023-03-22T04:54:19.338Z,99.90
2023-03-22T04:56:47.625Z,99.90
2023-03-22T04:59:20.379Z,99.90
2023-03-22T05:01:51.523Z,99.90
2023-03-22T05:04:24.475Z,99.90
2023-03-22T05:06:59.948Z,99.90
2023-03-22T05:09:37.066Z,99.90
2023-03-22T05:12:05.665Z,99.90
2023-03-22T05:14:42.442Z,99.90
2023-03-22T05:17:12.698Z,99.90
2023-03-22T05:19:41.851Z,99.90
2023-03-22T05:22:12.143Z,99.90
2023-03-22T05:27:30.993Z,99.90
2023-03-22T05:30:19.383Z,99.90
2023-03-22T05:32:57.750Z,99.90
2023-03-22T05:35:26.563Z,99.90
2023-03-22T05:37:56.965Z,99.90
2023-03-22T05:40:29.051Z,99.90
2023-03-22T05:45:31.780Z,99.90
2023-03-22T05:48:09.323Z,99.90
2023-03-22T05:50:39.176Z,99.90
2023-03-22T05:53:08.447Z,99.90
2023-03-22T05:55:57.730Z,99.90
2023-03-22T06:01:07.494Z,99.90
2023-03-22T06:03:48.572Z,99.90
2023-03-22T06:06:30.665Z,99.90
2023-03-22T06:09:16.899Z,99.90
2023-03-22T06:11:49.144Z,99.90
2023-03-22T06:14:18.399Z,99.90
2023-03-22T06:17:04.996Z,99.90
2023-03-22T06:19:33.679Z,99.90
2023-03-22T06:24:40.622Z,99.90
2023-03-22T06:27:11.370Z,99.90
2023-03-22T06:29:42.231Z,99.90
2023-03-22T06:32:12.100Z,99.90
2023-03-22T06:34:40.526Z,99.90
2023-03-22T06:37:11.126Z,99.90
2023-03-22T06:39:42.295Z,99.90
2023-03-22T06:42:11.954Z,99.90
2023-03-22T06:44:42.361Z,99.90
2023-03-22T06:47:41.974Z,99.90
2023-03-22T06:50:28.913Z,99.90
2023-03-22T06:58:16.165Z,99.90
2023-03-22T07:00:44.553Z,99.90
2023-03-22T07:03:14.370Z,99.90
2023-03-22T07:05:52.561Z,99.90
2023-03-22T07:08:21.282Z,99.90
2023-03-22T07:10:52.356Z,99.90
2023-03-22T07:13:24.693Z,99.90
2023-03-22T07:15:57.789Z,99.90
2023-03-22T07:18:45.889Z,99.90
2023-03-22T07:21:15.406Z,99.90
2023-03-22T07:23:47.947Z,99.90
2023-03-22T07:26:18.734Z,99.90
2023-03-22T07:28:50.365Z,99.90
2023-03-22T07:31:21.969Z,99.90
2023-03-22T07:34:00.585Z,99.90
2023-03-22T07:39:02.651Z,99.90
2023-03-22T07:41:35.665Z,99.90
2023-03-22T07:44:23.173Z,99.90
2023-03-22T07:47:27.218Z,99.90
2023-03-22T07:52:48.301Z,99.90
2023-03-22T07:55:17.509Z,99.90
2023-03-22T07:57:46.038Z,99.90
2023-03-22T08:00:15.677Z,99.90
2023-03-22T08:02:45.943Z,99.90
2023-03-22T08:05:30.622Z,99.90
2023-03-22T08:08:03.928Z,99.90
2023-03-22T08:10:32.916Z,99.90
2023-03-22T08:13:02.857Z,99.90
2023-03-22T08:15:31.789Z,99.90
2023-03-22T08:18:00.783Z,99.90
2023-03-22T08:20:42.229Z,99.90
2023-03-22T08:23:16.928Z,99.90
2023-03-22T08:26:04.855Z,99.90
2023-03-22T08:28:34.323Z,99.90
2023-03-22T08:31:03.065Z,99.90
2023-03-22T08:33:31.778Z,99.90
2023-03-22T08:36:11.333Z,99.90
2023-03-22T08:43:47.159Z,99.90
2023-03-22T08:46:15.805Z,99.90
2023-03-22T08:48:50.677Z,99.90
2023-03-22T08:51:31.325Z,98.40
2023-03-22T08:56:54.730Z,96.30
2023-03-22T08:59:38.091Z,94.40
2023-03-22T09:04:47.419Z,92.00
2023-03-22T09:07:18.937Z,92.70
2023-03-22T09:09:53.917Z,93.10
2023-03-22T09:12:22.753Z,91.30
2023-03-22T09:14:51.838Z,88.60
2023-03-22T09:17:22.460Z,88.20
2023-03-22T09:20:02.717Z,86.80
2023-03-22T09:22:39.574Z,91.00
2023-03-22T09:25:13.273Z,81.90
2023-03-22T09:27:44.882Z,86.30
2023-03-22T09:30:14.220Z,83.30
2023-03-22T09:32:43.248Z,80.00
2023-03-22T09:35:14.612Z,76.10
2023-03-22T09:37:56.264Z,74.80
2023-03-22T09:40:30.728Z,77.60
2023-03-22T09:43:03.973Z,73.00
2023-03-22T09:45:39.796Z,73.10
2023-03-22T09:48:18.863Z,71.10
2023-03-22T09:50:52.537Z,69.20
2023-03-22T09:53:28.454Z,69.00
2023-03-22T09:56:11.573Z,69.50
2023-03-22T10:01:29.581Z,70.40
2023-03-22T10:07:16.198Z,69.30
2023-03-22T10:10:01.196Z,70.20
2023-03-22T10:12:34.806Z,70.00
2023-03-22T10:15:11.867Z,67.90
2023-03-22T10:17:45.531Z,70.00
2023-03-22T10:22:57.217Z,71.20
2023-03-22T10:25:36.965Z,70.00
2023-03-22T10:28:18.101Z,69.20
2023-03-22T10:30:54.638Z,70.80
2023-03-22T10:33:39.172Z,69.30
2023-03-22T10:36:15.090Z,69.00
2023-03-22T10:38:50.790Z,68.40
2023-03-22T10:41:24.093Z,66.50
2023-03-22T10:43:58.353Z,68.30
2023-03-22T10:46:34.716Z,67.20
2023-03-22T10:49:06.501Z,66.90
2023-03-22T10:51:44.078Z,65.50
2023-03-22T10:54:17.102Z,66.20
2023-03-22T10:56:47.123Z,64.60
2023-03-22T10:59:48.411Z,64.80
2023-03-22T11:02:26.940Z,64.30
2023-03-22T11:04:59.319Z,63.60
2023-03-22T11:07:36.619Z,64.10
2023-03-22T11:10:24.550Z,61.70
2023-03-22T11:15:33.005Z,60.90
2023-03-22T11:18:08.111Z,61.60
2023-03-22T11:20:37.265Z,61.30
2023-03-22T11:23:07.481Z,62.60
2023-03-22T11:25:44.890Z,63.00
2023-03-22T11:28:22.213Z,62.70
2023-03-22T11:31:07.563Z,63.20
2023-03-22T11:33:37.525Z,64.90
2023-03-22T11:36:17.649Z,63.20
2023-03-22T11:38:47.425Z,62.80
2023-03-22T11:41:25.642Z,63.70
2023-03-22T11:43:59.485Z,62.30
2023-03-22T11:46:28.753Z,62.20
2023-03-22T11:49:03.153Z,62.50
2023-03-22T11:51:35.261Z,62.70
2023-03-22T11:54:15.934Z,62.70
2023-03-22T11:56:48.759Z,60.80
2023-03-22T11:59:25.845Z,60.70
2023-03-22T12:02:01.451Z,61.80
2023-03-22T12:04:36.121Z,61.80
2023-03-22T12:07:15.500Z,62.30
2023-03-22T12:09:52.012Z,61.60
2023-03-22T12:12:26.800Z,59.00
2023-03-22T12:15:04.853Z,58.30
2023-03-22T12:17:42.627Z,60.30
2023-03-22T12:20:27.927Z,58.80
2023-03-22T12:22:57.806Z,58.20
2023-03-22T12:25:33.398Z,58.60
2023-03-22T12:28:09.141Z,59.20
2023-03-22T12:30:46.052Z,59.40
2023-03-22T12:33:24.208Z,60.10
2023-03-22T12:35:59.486Z,59.60
2023-03-22T12:38:38.797Z,59.60
2023-03-22T12:41:13.625Z,59.10
2023-03-22T12:43:53.253Z,59.30
2023-03-22T12:46:27.776Z,62.30
2023-03-22T12:49:02.468Z,60.40
2023-03-22T12:51:31.241Z,58.40
2023-03-22T12:54:02.902Z,59.90
2023-03-22T12:56:45.330Z,61.20
2023-03-22T12:59:21.401Z,63.10
2023-03-22T13:04:34.131Z,59.90
2023-03-22T13:07:16.644Z,58.40
2023-03-22T13:09:47.663Z,57.90
2023-03-22T13:12:33.317Z,57.60
2023-03-22T13:15:41.656Z,57.80
2023-03-22T13:18:33.479Z,57.90
2023-03-22T13:21:19.196Z,59.60
2023-03-22T13:24:20.604Z,59.70
2023-03-22T13:26:52.901Z,59.60
2023-03-22T13:29:25.471Z,59.50
2023-03-22T13:32:00.418Z,58.60
2023-03-22T13:34:39.466Z,58.10
2023-03-22T13:37:18.875Z,58.10
2023-03-22T13:39:53.917Z,58.60
2023-03-22T13:42:29.484Z,59.80
2023-03-22T13:45:03.802Z,58.40
2023-03-22T13:47:38.196Z,59.10
2023-03-22T13:50:20.029Z,58.10
2023-03-22T13:53:00.643Z,56.20
2023-03-22T13:55:48.190Z,56.40
2023-03-22T13:58:49.675Z,57.80
2023-03-22T14:01:28.261Z,58.40
2023-03-22T14:04:03.399Z,59.00
2023-03-22T14:06:43.519Z,59.60
2023-03-22T14:11:50.152Z,57.00
2023-03-22T14:14:25.276Z,59.30
2023-03-22T14:19:37.713Z,58.60
